KCRW Airport Diagram

We have created a template for each of the higher traffic airports in the vZID airspace. They include KCMH, KCRW, KCVG, KDAY, KIND, KLEX and KSDF. You wil find usefull information including the airport diagram, weather, and specific airport procedures.

KCRW Weather

[Source: ADDS]
METAR
KCRW 200754Z 11007KT 7SM -RA OVC055 03/02 A3023 RMK AO2 SNE42 SLP244 P0009 T00280017 =
KCRW 200527Z 2006/2106 09004KT 6SM -SNRA BKN040 OVC070 FM200800 10005KT 2SM -SNRA BR SCT012 OVC028 FM201400 13008G14KT 5SM RA OVC020 FM201800 15009G16KT P6SM RA OVC015
TAF
KCRW 200527Z 2006/2106 09004KT 6SM -SNRA BKN040 OVC070 FM200800 10005KT 2SM -SNRA BR SCT012 OVC028 FM201400 13008G14KT 5SM RA OVC020 FM201800 15009G16KT P6SM RA OVC015 =

KCRW Operations

Calm wind runway up to 10kts: Rw 23

 

JSN Epic template designed by JoomlaShine.com